sensor_id;sensor_type;location;lat;lon;timestamp;temperature;humidity
21019;DHT22;10667;51.056;3.732;2023-04-01T00:02:25;10.60;99.90
21019;DHT22;10667;51.056;3.732;2023-04-01T00:04:51;10.60;99.90
21019;DHT22;10667;51.056;3.732;2023-04-01T00:07:17;10.70;99.90
21019;DHT22;10667;51.056;3.732;2023-04-01T00:09:42;10.70;99.90
21019;DHT22;10667;51.056;3.732;2023-04-01T00:12:08;10.70;99.90
21019;DHT22;10667;51.056;3.732;2023-04-01T00:14:34;10.70;99.90
21019;DHT22;10667;51.056;3.732;2023-04-01T00:17:02;10.60;99.90
21019;DHT22;10667;51.056;3.732;2023-04-01T00:19:28;10.60;99.90
21019;DHT22;10667;51.056;3.732;2023-04-01T00:21:54;10.60;99.90
21019;DHT22;10667;51.056;3.732;2023-04-01T00:24:19;10.60;99.90
21019;DHT22;10667;51.056;3.732;2023-04-01T00:26:45;10.60;99.90
21019;DHT22;10667;51.056;3.732;2023-04-01T00:29:12;10.50;99.90
21019;DHT22;10667;51.056;3.732;2023-04-01T00:31:38;10.40;99.90
21019;DHT22;10667;51.056;3.732;2023-04-01T00:34:04;10.40;99.90
21019;DHT22;10667;51.056;3.732;2023-04-01T00:36:30;10.50;99.90
21019;DHT22;10667;51.056;3.732;2023-04-01T00:38:57;10.50;99.90
21019;DHT22;10667;51.056;3.732;2023-04-01T00:41:24;10.50;99.90
21019;DHT22;10667;51.056;3.732;2023-04-01T00:43:52;10.40;99.90
21019;DHT22;10667;51.056;3.732;2023-04-01T00:46:18;10.30;99.90
21019;DHT22;10667;51.056;3.732;2023-04-01T00:48:51;10.50;99.90
21019;DHT22;10667;51.056;3.732;2023-04-01T00:51:23;10.70;99.90
21019;DHT22;10667;51.056;3.732;2023-04-01T00:53:53;10.60;99.90
21019;DHT22;10667;51.056;3.732;2023-04-01T00:56:22;10.60;99.90
21019;DHT22;10667;51.056;3.732;2023-04-01T00:59:04;10.60;99.90
21019;DHT22;10667;51.056;3.732;2023-04-01T01:01:34;10.60;99.90
21019;DHT22;10667;51.056;3.732;2023-04-01T01:04:01;10.40;99.90
21019;DHT22;10667;51.056;3.732;2023-04-01T01:16:00;10.20;99.90
21019;DHT22;10667;51.056;3.732;2023-04-01T01:18:09;10.10;99.90
21019;DHT22;10667;51.056;3.732;2023-04-01T01:37:15;10.10;99.90
21019;DHT22;10667;51.056;3.732;2023-04-01T01:39:44;10.10;99.90
21019;DHT22;10667;51.056;3.732;2023-04-01T01:42:14;10.00;99.90
21019;DHT22;10667;51.056;3.732;2023-04-01T01:44:43;9.90;99.90
21019;DHT22;10667;51.056;3.732;2023-04-01T01:47:10;9.80;99.90
21019;DHT22;10667;51.056;3.732;2023-04-01T01:49:37;9.90;99.90
21019;DHT22;10667;51.056;3.732;2023-04-01T01:52:04;9.90;99.90
21019;DHT22;10667;51.056;3.732;2023-04-01T01:54:30;9.90;99.90
21019;DHT22;10667;51.056;3.732;2023-04-01T01:57:06;10.00;99.90
21019;DHT22;10667;51.056;3.732;2023-04-01T01:59:34;10.00;99.90
21019;DHT22;10667;51.056;3.732;2023-04-01T02:02:01;9.90;99.90
21019;DHT22;10667;51.056;3.732;2023-04-01T02:04:34;10.00;99.90
21019;DHT22;10667;51.056;3.732;2023-04-01T02:07:07;10.10;99.90
21019;DHT22;10667;51.056;3.732;2023-04-01T02:09:34;10.10;99.90
21019;DHT22;10667;51.056;3.732;2023-04-01T02:12:09;10.00;99.90
21019;DHT22;10667;51.056;3.732;2023-04-01T02:17:07;9.80;99.90
21019;DHT22;10667;51.056;3.732;2023-04-01T02:19:52;10.00;99.90
21019;DHT22;10667;51.056;3.732;2023-04-01T02:22:31;10.10;99.90
21019;DHT22;10667;51.056;3.732;2023-04-01T02:25:04;10.10;99.90
21019;DHT22;10667;51.056;3.732;2023-04-01T02:27:31;10.20;99.90
21019;DHT22;10667;51.056;3.732;2023-04-01T02:29:57;10.10;99.90
21019;DHT22;10667;51.056;3.732;2023-04-01T02:32:24;10.20;99.90
21019;DHT22;10667;51.056;3.732;2023-04-01T02:34:51;10.40;99.90
21019;DHT22;10667;51.056;3.732;2023-04-01T02:37:17;10.40;99.90
21019;DHT22;10667;51.056;3.732;2023-04-01T02:39:43;10.40;99.90
21019;DHT22;10667;51.056;3.732;2023-04-01T02:42:09;10.30;99.90
21019;DHT22;10667;51.056;3.732;2023-04-01T02:44:36;10.40;99.90
21019;DHT22;10667;51.056;3.732;2023-04-01T02:47:02;10.30;99.90
21019;DHT22;10667;51.056;3.732;2023-04-01T02:49:28;10.20;99.90
21019;DHT22;10667;51.056;3.732;2023-04-01T02:51:53;10.40;99.90
21019;DHT22;10667;51.056;3.732;2023-04-01T02:54:19;10.20;99.90
21019;DHT22;10667;51.056;3.732;2023-04-01T02:56:45;10.20;99.90
21019;DHT22;10667;51.056;3.732;2023-04-01T02:59:11;10.10;99.90
21019;DHT22;10667;51.056;3.732;2023-04-01T03:01:37;10.00;99.90
21019;DHT22;10667;51.056;3.732;2023-04-01T03:04:04;10.00;99.90
21019;DHT22;10667;51.056;3.732;2023-04-01T03:06:30;10.00;99.90
21019;DHT22;10667;51.056;3.732;2023-04-01T03:08:56;10.20;99.90
21019;DHT22;10667;51.056;3.732;2023-04-01T03:11:21;10.20;99.90
21019;DHT22;10667;51.056;3.732;2023-04-01T03:13:47;10.00;99.90
21019;DHT22;10667;51.056;3.732;2023-04-01T03:16:14;10.10;99.90
21019;DHT22;10667;51.056;3.732;2023-04-01T03:18:40;10.10;99.90
21019;DHT22;10667;51.056;3.732;2023-04-01T03:21:17;10.20;99.90
21019;DHT22;10667;51.056;3.732;2023-04-01T03:23:43;10.40;99.90
21019;DHT22;10667;51.056;3.732;2023-04-01T03:26:09;10.60;99.90
21019;DHT22;10667;51.056;3.732;2023-04-01T03:28:35;10.60;99.90
21019;DHT22;10667;51.056;3.732;2023-04-01T03:31:00;10.60;99.90
21019;DHT22;10667;51.056;3.732;2023-04-01T03:33:26;10.60;99.90
21019;DHT22;10667;51.056;3.732;2023-04-01T03:35:52;10.60;99.90
21019;DHT22;10667;51.056;3.732;2023-04-01T03:38:17;10.60;99.90
21019;DHT22;10667;51.056;3.732;2023-04-01T03:40:43;10.40;99.90
21019;DHT22;10667;51.056;3.732;2023-04-01T03:43:10;10.40;99.90
21019;DHT22;10667;51.056;3.732;2023-04-01T03:45:44;10.20;99.90
21019;DHT22;10667;51.056;3.732;2023-04-01T03:48:09;10.50;99.90
21019;DHT22;10667;51.056;3.732;2023-04-01T03:50:35;10.40;99.90
21019;DHT22;10667;51.056;3.732;2023-04-01T03:53:01;10.20;99.90
21019;DHT22;10667;51.056;3.732;2023-04-01T03:55:26;10.20;99.90
21019;DHT22;10667;51.056;3.732;2023-04-01T03:57:52;10.40;99.90
21019;DHT22;10667;51.056;3.732;2023-04-01T04:00:18;10.40;99.90
21019;DHT22;10667;51.056;3.732;2023-04-01T04:02:44;10.40;99.90
21019;DHT22;10667;51.056;3.732;2023-04-01T04:05:10;10.30;99.90
21019;DHT22;10667;51.056;3.732;2023-04-01T04:07:36;10.20;99.90
21019;DHT22;10667;51.056;3.732;2023-04-01T04:10:02;10.50;99.90
21019;DHT22;10667;51.056;3.732;2023-04-01T04:12:28;10.40;99.90
21019;DHT22;10667;51.056;3.732;2023-04-01T04:14:54;10.30;99.90
21019;DHT22;10667;51.056;3.732;2023-04-01T04:17:20;10.30;99.90
21019;DHT22;10667;51.056;3.732;2023-04-01T04:19:45;10.30;99.90
21019;DHT22;10667;51.056;3.732;2023-04-01T04:22:11;10.30;99.90
21019;DHT22;10667;51.056;3.732;2023-04-01T04:24:38;10.30;99.90
21019;DHT22;10667;51.056;3.732;2023-04-01T04:27:04;10.30;99.90
21019;DHT22;10667;51.056;3.732;2023-04-01T04:29:30;10.40;99.90
21019;DHT22;10667;51.056;3.732;2023-04-01T04:31:55;10.40;99.90
21019;DHT22;10667;51.056;3.732;2023-04-01T04:34:21;10.40;99.90
21019;DHT22;10667;51.056;3.732;2023-04-01T04:36:48;10.60;99.90
21019;DHT22;10667;51.056;3.732;2023-04-01T04:39:14;10.40;99.90
21019;DHT22;10667;51.056;3.732;2023-04-01T04:41:40;10.10;99.90
21019;DHT22;10667;51.056;3.732;2023-04-01T04:44:06;10.00;99.90
21019;DHT22;10667;51.056;3.732;2023-04-01T04:46:32;10.20;99.90
21019;DHT22;10667;51.056;3.732;2023-04-01T04:48:58;10.30;99.90
21019;DHT22;10667;51.056;3.732;2023-04-01T04:51:24;10.30;99.90
21019;DHT22;10667;51.056;3.732;2023-04-01T04:53:50;10.40;99.90
21019;DHT22;10667;51.056;3.732;2023-04-01T04:56:19;10.40;99.90
21019;DHT22;10667;51.056;3.732;2023-04-01T04:58:46;10.30;99.90
21019;DHT22;10667;51.056;3.732;2023-04-01T05:01:13;10.10;99.90
21019;DHT22;10667;51.056;3.732;2023-04-01T05:03:40;10.10;99.90
21019;DHT22;10667;51.056;3.732;2023-04-01T05:06:07;10.20;99.90
21019;DHT22;10667;51.056;3.732;2023-04-01T05:08:33;10.10;99.90
21019;DHT22;10667;51.056;3.732;2023-04-01T05:11:00;10.00;99.90
21019;DHT22;10667;51.056;3.732;2023-04-01T05:13:26;10.00;99.90
21019;DHT22;10667;51.056;3.732;2023-04-01T05:15:52;10.20;99.90
21019;DHT22;10667;51.056;3.732;2023-04-01T05:18:18;10.30;99.90
21019;DHT22;10667;51.056;3.732;2023-04-01T05:20:51;10.30;99.90
21019;DHT22;10667;51.056;3.732;2023-04-01T05:23:19;10.30;99.90
21019;DHT22;10667;51.056;3.732;2023-04-01T05:25:47;10.40;99.90
21019;DHT22;10667;51.056;3.732;2023-04-01T05:28:13;10.30;99.90
21019;DHT22;10667;51.056;3.732;2023-04-01T05:30:42;10.30;99.90
21019;DHT22;10667;51.056;3.732;2023-04-01T05:33:10;10.30;99.90
21019;DHT22;10667;51.056;3.732;2023-04-01T05:35:36;10.40;99.90
21019;DHT22;10667;51.056;3.732;2023-04-01T05:38:02;10.20;99.90
21019;DHT22;10667;51.056;3.732;2023-04-01T05:40:28;10.40;99.90
21019;DHT22;10667;51.056;3.732;2023-04-01T05:42:54;10.20;99.90
21019;DHT22;10667;51.056;3.732;2023-04-01T05:45:20;10.20;99.90
21019;DHT22;10667;51.056;3.732;2023-04-01T05:47:46;10.10;99.90
21019;DHT22;10667;51.056;3.732;2023-04-01T05:50:12;10.30;99.90
21019;DHT22;10667;51.056;3.732;2023-04-01T05:52:38;10.50;99.90
21019;DHT22;10667;51.056;3.732;2023-04-01T05:55:05;10.10;99.90
21019;DHT22;10667;51.056;3.732;2023-04-01T05:57:31;10.20;99.90
21019;DHT22;10667;51.056;3.732;2023-04-01T05:59:57;10.20;99.90
21019;DHT22;10667;51.056;3.732;2023-04-01T06:02:23;10.20;99.90
21019;DHT22;10667;51.056;3.732;2023-04-01T06:04:49;10.00;99.90
21019;DHT22;10667;51.056;3.732;2023-04-01T06:07:19;10.00;99.90
21019;DHT22;10667;51.056;3.732;2023-04-01T06:09:45;10.00;99.90
21019;DHT22;10667;51.056;3.732;2023-04-01T06:12:27;9.80;99.90
21019;DHT22;10667;51.056;3.732;2023-04-01T06:23:35;9.80;99.90
21019;DHT22;10667;51.056;3.732;2023-04-01T06:26:10;9.80;99.90
21019;DHT22;10667;51.056;3.732;2023-04-01T06:31:43;10.00;99.90
21019;DHT22;10667;51.056;3.732;2023-04-01T06:34:48;9.90;99.90
21019;DHT22;10667;51.056;3.732;2023-04-01T06:42:33;9.80;99.90
21019;DHT22;10667;51.056;3.732;2023-04-01T06:55:52;9.90;99.90
21019;DHT22;10667;51.056;3.732;2023-04-01T07:01:08;10.00;99.90
21019;DHT22;10667;51.056;3.732;2023-04-01T07:03:55;10.00;99.90
21019;DHT22;10667;51.056;3.732;2023-04-01T07:06:44;10.00;99.90
21019;DHT22;10667;51.056;3.732;2023-04-01T07:09:15;10.00;99.90
21019;DHT22;10667;51.056;3.732;2023-04-01T07:11:42;9.90;99.90
21019;DHT22;10667;51.056;3.732;2023-04-01T07:14:43;10.10;99.90
21019;DHT22;10667;51.056;3.732;2023-04-01T07:20:01;10.30;99.90
21019;DHT22;10667;51.056;3.732;2023-04-01T07:22:32;10.20;99.90
21019;DHT22;10667;51.056;3.732;2023-04-01T07:25:11;9.90;99.90
21019;DHT22;10667;51.056;3.732;2023-04-01T07:27:37;9.90;99.90
21019;DHT22;10667;51.056;3.732;2023-04-01T07:30:06;9.90;99.90
21019;DHT22;10667;51.056;3.732;2023-04-01T07:32:56;10.00;99.90
21019;DHT22;10667;51.056;3.732;2023-04-01T07:35:30;10.10;99.90
21019;DHT22;10667;51.056;3.732;2023-04-01T07:43:41;10.10;99.90
21019;DHT22;10667;51.056;3.732;2023-04-01T07:51:40;10.10;99.90
21019;DHT22;10667;51.056;3.732;2023-04-01T07:54:22;10.00;99.90
21019;DHT22;10667;51.056;3.732;2023-04-01T08:03:02;10.20;99.90
21019;DHT22;10667;51.056;3.732;2023-04-01T08:05:16;10.40;99.90
21019;DHT22;10667;51.056;3.732;2023-04-01T08:08:05;10.30;99.90
21019;DHT22;10667;51.056;3.732;2023-04-01T08:13:14;10.20;99.90
21019;DHT22;10667;51.056;3.732;2023-04-01T08:15:55;10.20;99.90
21019;DHT22;10667;51.056;3.732;2023-04-01T08:21:27;10.50;99.90
21019;DHT22;10667;51.056;3.732;2023-04-01T08:23:56;10.50;99.90
21019;DHT22;10667;51.056;3.732;2023-04-01T08:29:04;10.70;99.90
21019;DHT22;10667;51.056;3.732;2023-04-01T08:31:58;10.80;99.90
21019;DHT22;10667;51.056;3.732;2023-04-01T08:34:36;10.60;99.90
21019;DHT22;10667;51.056;3.732;2023-04-01T08:37:19;10.40;99.90
21019;DHT22;10667;51.056;3.732;2023-04-01T08:39:50;10.40;99.90
21019;DHT22;10667;51.056;3.732;2023-04-01T08:42:25;10.40;99.90
21019;DHT22;10667;51.056;3.732;2023-04-01T08:48:10;10.50;99.90
21019;DHT22;10667;51.056;3.732;2023-04-01T08:56:20;10.60;99.90
21019;DHT22;10667;51.056;3.732;2023-04-01T08:59:13;10.50;99.90
21019;DHT22;10667;51.056;3.732;2023-04-01T09:02:41;10.50;99.90
21019;DHT22;10667;51.056;3.732;2023-04-01T09:10:57;10.50;99.90
21019;DHT22;10667;51.056;3.732;2023-04-01T09:16:27;10.70;99.90
21019;DHT22;10667;51.056;3.732;2023-04-01T09:38:09;11.00;99.90
21019;DHT22;10667;51.056;3.732;2023-04-01T10:00:10;10.70;99.90
21019;DHT22;10667;51.056;3.732;2023-04-01T10:46:16;10.90;99.90
21019;DHT22;10667;51.056;3.732;2023-04-01T10:56:53;10.70;99.90
21019;DHT22;10667;51.056;3.732;2023-04-01T11:07:54;10.60;99.90
21019;DHT22;10667;51.056;3.732;2023-04-01T11:32:57;10.50;99.90
21019;DHT22;10667;51.056;3.732;2023-04-01T11:38:11;10.40;99.90
21019;DHT22;10667;51.056;3.732;2023-04-01T11:52:28;10.70;99.90
21019;DHT22;10667;51.056;3.732;2023-04-01T11:55:12;10.70;99.90
21019;DHT22;10667;51.056;3.732;2023-04-01T11:57:55;10.50;99.90
21019;DHT22;10667;51.056;3.732;2023-04-01T12:06:30;10.80;99.90
21019;DHT22;10667;51.056;3.732;2023-04-01T12:08:46;10.90;99.90
21019;DHT22;10667;51.056;3.732;2023-04-01T12:11:30;10.70;99.90
21019;DHT22;10667;51.056;3.732;2023-04-01T12:14:19;10.80;99.90
21019;DHT22;10667;51.056;3.732;2023-04-01T12:17:07;10.80;99.90
21019;DHT22;10667;51.056;3.732;2023-04-01T12:19:48;10.80;99.90
21019;DHT22;10667;51.056;3.732;2023-04-01T12:23:15;10.90;99.90
21019;DHT22;10667;51.056;3.732;2023-04-01T12:28:24;10.70;99.90
21019;DHT22;10667;51.056;3.732;2023-04-01T12:33:48;11.00;99.90
21019;DHT22;10667;51.056;3.732;2023-04-01T12:42:12;11.00;99.90
21019;DHT22;10667;51.056;3.732;2023-04-01T12:55:42;10.90;99.90
21019;DHT22;10667;51.056;3.732;2023-04-01T13:04:04;10.90;99.90
21019;DHT22;10667;51.056;3.732;2023-04-01T13:20:58;10.80;99.90
21019;DHT22;10667;51.056;3.732;2023-04-01T13:29:01;10.70;99.90
21019;DHT22;10667;51.056;3.732;2023-04-01T13:34:22;10.60;99.90
21019;DHT22;10667;51.056;3.732;2023-04-01T13:40:02;10.90;99.90
21019;DHT22;10667;51.056;3.732;2023-04-01T13:42:38;10.80;99.90
21019;DHT22;10667;51.056;3.732;2023-04-01T13:45:19;11.00;99.90
21019;DHT22;10667;51.056;3.732;2023-04-01T13:53:24;10.90;99.90
21019;DHT22;10667;51.056;3.732;2023-04-01T14:15:16;10.60;99.90
21019;DHT22;10667;51.056;3.732;2023-04-01T14:20:41;10.70;99.90
21019;DHT22;10667;51.056;3.732;2023-04-01T14:26:17;10.90;99.90
21019;DHT22;10667;51.056;3.732;2023-04-01T14:34:41;10.70;99.90
21019;DHT22;10667;51.056;3.732;2023-04-01T14:46:14;10.70;99.90
21019;DHT22;10667;51.056;3.732;2023-04-01T14:49:04;10.60;99.90
21019;DHT22;10667;51.056;3.732;2023-04-01T14:51:37;10.70;99.90
21019;DHT22;10667;51.056;3.732;2023-04-01T14:54:40;10.60;99.90
21019;DHT22;10667;51.056;3.732;2023-04-01T14:57:26;10.50;99.90
21019;DHT22;10667;51.056;3.732;2023-04-01T15:07:58;10.70;99.90
21019;DHT22;10667;51.056;3.732;2023-04-01T15:24:40;10.60;99.90
21019;DHT22;10667;51.056;3.732;2023-04-01T15:29:59;10.70;99.90
21019;DHT22;10667;51.056;3.732;2023-04-01T15:32:42;10.70;99.90
21019;DHT22;10667;51.056;3.732;2023-04-01T15:38:10;10.70;99.90
21019;DHT22;10667;51.056;3.732;2023-04-01T15:41:16;10.90;99.90
21019;DHT22;10667;51.056;3.732;2023-04-01T15:46:46;10.80;99.90
21019;DHT22;10667;51.056;3.732;2023-04-01T15:51:48;10.80;99.90
21019;DHT22;10667;51.056;3.732;2023-04-01T15:57:36;11.00;99.90
21019;DHT22;10667;51.056;3.732;2023-04-01T16:00:18;11.20;99.90
21019;DHT22;10667;51.056;3.732;2023-04-01T16:11:15;11.00;99.90
21019;DHT22;10667;51.056;3.732;2023-04-01T16:14:17;10.90;99.90
21019;DHT22;10667;51.056;3.732;2023-04-01T16:19:55;10.70;99.90
21019;DHT22;10667;51.056;3.732;2023-04-01T16:39:43;10.90;99.90
21019;DHT22;10667;51.056;3.732;2023-04-01T16:47:38;10.70;99.90
21019;DHT22;10667;51.056;3.732;2023-04-01T16:55:41;10.60;99.90
21019;DHT22;10667;51.056;3.732;2023-04-01T16:58:10;10.50;99.90
21019;DHT22;10667;51.056;3.732;2023-04-01T17:00:47;10.80;99.90
21019;DHT22;10667;51.056;3.732;2023-04-01T17:08:23;10.90;99.90
21019;DHT22;10667;51.056;3.732;2023-04-01T17:11:17;10.90;99.90
21019;DHT22;10667;51.056;3.732;2023-04-01T17:16:52;11.00;99.90
21019;DHT22;10667;51.056;3.732;2023-04-01T17:41:52;10.50;99.90
21019;DHT22;10667;51.056;3.732;2023-04-01T17:44:49;10.50;99.90
21019;DHT22;10667;51.056;3.732;2023-04-01T17:47:54;10.50;99.90
21019;DHT22;10667;51.056;3.732;2023-04-01T17:56:02;10.40;99.90
21019;DHT22;10667;51.056;3.732;2023-04-01T17:58:59;10.50;99.90
21019;DHT22;10667;51.056;3.732;2023-04-01T18:20:52;10.30;99.90
21019;DHT22;10667;51.056;3.732;2023-04-01T18:23:46;10.20;99.90
21019;DHT22;10667;51.056;3.732;2023-04-01T18:26:34;10.10;99.90
21019;DHT22;10667;51.056;3.732;2023-04-01T18:31:40;10.10;99.90
21019;DHT22;10667;51.056;3.732;2023-04-01T18:34:13;10.00;99.90
21019;DHT22;10667;51.056;3.732;2023-04-01T18:36:55;10.10;99.90
21019;DHT22;10667;51.056;3.732;2023-04-01T18:39:50;10.10;99.90
21019;DHT22;10667;51.056;3.732;2023-04-01T18:45:31;10.00;99.90
21019;DHT22;10667;51.056;3.732;2023-04-01T18:53:31;9.90;99.90
21019;DHT22;10667;51.056;3.732;2023-04-01T18:56:05;10.00;99.90
21019;DHT22;10667;51.056;3.732;2023-04-01T18:58:34;10.00;99.90
21019;DHT22;10667;51.056;3.732;2023-04-01T19:06:48;10.10;99.90
21019;DHT22;10667;51.056;3.732;2023-04-01T19:11:46;10.10;99.90
21019;DHT22;10667;51.056;3.732;2023-04-01T19:14:28;10.10;99.90
21019;DHT22;10667;51.056;3.732;2023-04-01T19:17:03;10.10;99.90
21019;DHT22;10667;51.056;3.732;2023-04-01T19:25:54;10.10;99.90
21019;DHT22;10667;51.056;3.732;2023-04-01T19:36:59;10.10;99.90
21019;DHT22;10667;51.056;3.732;2023-04-01T19:39:49;10.00;99.90
21019;DHT22;10667;51.056;3.732;2023-04-01T19:42:31;10.10;99.90
21019;DHT22;10667;51.056;3.732;2023-04-01T19:45:18;10.10;99.90
21019;DHT22;10667;51.056;3.732;2023-04-01T19:50:35;10.10;99.90
21019;DHT22;10667;51.056;3.732;2023-04-01T19:53:38;10.10;99.90
21019;DHT22;10667;51.056;3.732;2023-04-01T20:04:39;10.00;99.90
21019;DHT22;10667;51.056;3.732;2023-04-01T20:07:35;9.90;99.90
21019;DHT22;10667;51.056;3.732;2023-04-01T20:13:13;10.00;99.90
21019;DHT22;10667;51.056;3.732;2023-04-01T20:15:44;10.00;99.90
21019;DHT22;10667;51.056;3.732;2023-04-01T20:18:20;9.90;99.90
21019;DHT22;10667;51.056;3.732;2023-04-01T20:21:15;10.00;99.90
21019;DHT22;10667;51.056;3.732;2023-04-01T20:23:59;10.10;99.90
21019;DHT22;10667;51.056;3.732;2023-04-01T20:26:33;10.10;99.90
21019;DHT22;10667;51.056;3.732;2023-04-01T20:37:44;10.10;99.90
21019;DHT22;10667;51.056;3.732;2023-04-01T20:40:37;10.10;99.90
21019;DHT22;10667;51.056;3.732;2023-04-01T20:49:53;10.30;99.90
21019;DHT22;10667;51.056;3.732;2023-04-01T20:57:31;10.00;99.90
21019;DHT22;10667;51.056;3.732;2023-04-01T21:00:24;10.00;99.90
21019;DHT22;10667;51.056;3.732;2023-04-01T21:08:29;10.00;99.90
21019;DHT22;10667;51.056;3.732;2023-04-01T21:11:07;10.00;99.90
21019;DHT22;10667;51.056;3.732;2023-04-01T21:13:53;10.10;99.90
21019;DHT22;10667;51.056;3.732;2023-04-01T21:16:44;10.10;99.90
21019;DHT22;10667;51.056;3.732;2023-04-01T21:27:49;10.20;99.90
21019;DHT22;10667;51.056;3.732;2023-04-01T21:38:48;10.10;99.90
21019;DHT22;10667;51.056;3.732;2023-04-01T21:41:38;10.10;99.90
21019;DHT22;10667;51.056;3.732;2023-04-01T21:55:28;10.00;99.90
21019;DHT22;10667;51.056;3.732;2023-04-01T22:12:07;10.20;99.90
21019;DHT22;10667;51.056;3.732;2023-04-01T22:19:52;10.10;99.90
21019;DHT22;10667;51.056;3.732;2023-04-01T22:28:07;10.00;99.90
21019;DHT22;10667;51.056;3.732;2023-04-01T22:30:41;10.00;99.90
21019;DHT22;10667;51.056;3.732;2023-04-01T22:33:55;10.00;99.90
21019;DHT22;10667;51.056;3.732;2023-04-01T22:39:17;10.10;99.90
21019;DHT22;10667;51.056;3.732;2023-04-01T22:47:35;10.00;99.90
21019;DHT22;10667;51.056;3.732;2023-04-01T22:50:16;10.00;99.90
21019;DHT22;10667;51.056;3.732;2023-04-01T22:52:46;10.00;99.90
21019;DHT22;10667;51.056;3.732;2023-04-01T22:55:26;10.00;99.90
21019;DHT22;10667;51.056;3.732;2023-04-01T22:58:28;9.80;99.90
21019;DHT22;10667;51.056;3.732;2023-04-01T23:00:59;9.80;99.90
21019;DHT22;10667;51.056;3.732;2023-04-01T23:03:32;9.80;99.90
21019;DHT22;10667;51.056;3.732;2023-04-01T23:06:00;9.90;99.90
21019;DHT22;10667;51.056;3.732;2023-04-01T23:11:12;9.90;99.90
21019;DHT22;10667;51.056;3.732;2023-04-01T23:19:59;10.00;99.90
21019;DHT22;10667;51.056;3.732;2023-04-01T23:30:51;9.70;99.90
21019;DHT22;10667;51.056;3.732;2023-04-01T23:36:13;9.80;99.90
21019;DHT22;10667;51.056;3.732;2023-04-01T23:38:42;9.90;99.90
21019;DHT22;10667;51.056;3.732;2023-04-01T23:41:21;9.90;99.90
21019;DHT22;10667;51.056;3.732;2023-04-01T23:44:01;9.90;99.90
21019;DHT22;10667;51.056;3.732;2023-04-01T23:46:29;9.80;99.90
21019;DHT22;10667;51.056;3.732;2023-04-01T23:48:55;9.90;99.90
21019;DHT22;10667;51.056;3.732;2023-04-01T23:51:25;9.90;99.90
21019;DHT22;10667;51.056;3.732;2023-04-01T23:54:24;10.00;99.90
21019;DHT22;10667;51.056;3.732;2023-04-01T23:56:54;9.90;99.90
21019;DHT22;10667;51.056;3.732;2023-04-01T23:59:32;10.00;99.90
